logo dgac
Miércoles 24 de Julio del 2024
Buscar por aerodromo o helipuerto
Ingrese nombre de aeródromo, localidad o designador OACI:

Aeródromo: Pichoy (PUB) (SCVD)

Ubicación: Valdivia, XIV Región, Chile (39º 38' 58'' S, 73º 05' 11'' W) Ver ubicación en el mapa

Pistas

Luces
Orientación Dimensión Pendiente Superficie Resistencia APCH THR RWY PAPI
17/35 2100 x 45 0,07 ASPH PCN 57 F/C/W/T Sí (3º)
Horas de operación HJ
Elevación 18 m / 59 ft
Otra Información Adm : DGAC
Uso : PUB
TEL : (56-63)2314302 (56-63)2314316 Anexos ARO 4306/4307
Ubicado a 32 km NE de Valdivia
email : aro.pichoy@dgac.gob.cl

Otra información ver AIP-Chile Volumen I AD 3.9-20.1-V
CCCM/FCCV Descargar CCCM/FCCV
andera de Chile
Mapa de Pichoy (PUB) (SCVD)

Último METAR

METAR SCVD 240200Z AUTO 05005KT 9999 OVC026 10/08 Q1022

Último TAF

TAF SCVD 231535Z 2316/2324 35010KT 9999 SCT010 OVC018 TX10/2319Z TN08/2324Z BECMG 2318/2320 -DZ

Últimas fotos cámaras

Imagen aerodromo Pichoy (PUB) (SCVD) Sur tomada el 24-07-2024 02:31:07 Imagen aerodromo Pichoy (PUB) (SCVD) Norte tomada el 24-07-2024 02:31:56

Último NOTAM

W1627/24 NOTAMN Q)SCTZ/QWULW/IV/BO/AW/000/004/3940S07257W001 A)SCVD B)2407121300 C)2408292100 D)DLY BTN 1300-2100 E)RPAS FLT SECT 6.5NM E AD SCVD ZONE ...D... RDO 0.06NM CENTERED ON GEO COORD: 393958.5S / 0725646.2W. F)GND G)400FT AGL